Time;durP1;ratioP1;P1;durP2;ratioP2;P2;SDS_P1;SDS_P2;PMS_P1;PMS_P2;Temp;Humidity;BMP_temperature;BMP_pressure;BME280_temperature;BME280_humidity;BME280_pressure;Samples;Min_cycle;Max_cycle;Signal;HPM_P1;HPM_P2
2022/09/06 00:00:14;;;;;;;5.90;5.07;;;22.20;78.90;;;;;;4973735;28;20208;-75
2022/09/06 00:02:41;;;;;;;5.90;5.20;;;22.20;79.10;;;;;;4973955;28;20061;-75
2022/09/06 00:05:08;;;;;;;8.43;5.43;;;22.20;78.90;;;;;;4973976;28;20078;-74
2022/09/06 00:07:34;;;;;;;10.50;5.22;;;22.20;79.70;;;;;;4972406;28;20469;-76
2022/09/06 00:10:00;;;;;;;7.32;5.60;;;22.20;79.40;;;;;;4973513;28;20122;-75
2022/09/06 00:12:25;;;;;;;9.98;5.20;;;22.10;80.10;;;;;;4973498;28;20089;-74
2022/09/06 00:14:51;;;;;;;11.13;6.50;;;22.10;80.20;;;;;;4973432;28;20036;-74
2022/09/06 00:17:17;;;;;;;8.88;5.22;;;22.00;80.50;;;;;;4973937;28;20065;-75
2022/09/06 00:19:43;;;;;;;9.40;5.85;;;22.10;80.80;;;;;;4973471;28;20058;-74
2022/09/06 00:22:08;;;;;;;8.55;5.38;;;22.00;81.00;;;;;;4972295;28;20027;-76
2022/09/06 00:24:36;;;;;;;11.25;6.10;;;22.00;81.20;;;;;;4973359;28;20034;-73
2022/09/06 00:27:05;;;;;;;11.75;6.20;;;22.00;81.30;;;;;;4973067;28;20185;-72
2022/09/06 00:29:31;;;;;;;12.05;5.72;;;22.10;80.80;;;;;;4971995;28;20306;-75
2022/09/06 00:31:58;;;;;;;9.60;6.10;;;22.00;81.30;;;;;;4973633;28;20113;-75
2022/09/06 00:34:24;;;;;;;10.50;6.43;;;22.00;81.60;;;;;;4973152;28;20496;-74
2022/09/06 00:36:50;;;;;;;9.40;5.70;;;22.00;81.40;;;;;;4973007;28;20058;-74
2022/09/06 00:39:15;;;;;;;7.38;5.28;;;21.90;82.10;;;;;;4972887;28;20026;-74
2022/09/06 00:41:41;;;;;;;9.02;5.60;;;21.90;82.00;;;;;;4972828;28;20031;-75
2022/09/06 00:44:07;;;;;;;8.15;5.82;;;22.00;82.40;;;;;;4973292;28;20025;-74
2022/09/06 00:46:33;;;;;;;11.80;6.13;;;21.90;82.40;;;;;;4972146;28;20241;-75
2022/09/06 00:49:05;;;;;;;7.53;5.93;;;21.90;82.30;;;;;;4973305;28;20039;-75
2022/09/06 00:51:33;;;;;;;9.10;5.85;;;22.00;82.50;;;;;;4972874;28;20043;-75
2022/09/06 00:54:01;;;;;;;;;;;22.00;82.20;;;;;;4972185;28;20039;-74
2022/09/06 00:56:27;;;;;;;9.57;5.70;;;21.90;82.50;;;;;;4972735;28;19906;-75
2022/09/06 00:58:53;;;;;;;7.50;5.45;;;21.90;82.00;;;;;;4973076;28;20050;-74
2022/09/06 01:01:19;;;;;;;11.05;5.78;;;21.90;81.90;;;;;;4972692;28;20561;-75
2022/09/06 01:03:45;;;;;;;9.82;5.50;;;21.90;81.50;;;;;;4972878;28;20295;-74
2022/09/06 01:06:16;;;;;;;9.32;6.30;;;21.90;82.00;;;;;;4972603;28;20035;-74
2022/09/06 01:09:01;;;;;;;9.05;6.15;;;21.90;82.70;;;;;;4972746;28;20089;-74
2022/09/06 01:11:54;;;;;;;11.80;5.97;;;21.80;83.70;;;;;;4972250;28;20157;-74
2022/09/06 01:14:47;;;;;;;9.85;6.10;;;21.80;83.50;;;;;;4972949;28;20042;-74
2022/09/06 01:17:16;;;;;;;12.43;6.53;;;21.80;85.00;;;;;;4972488;28;20038;-72
2022/09/06 01:19:53;;;;;;;10.32;6.07;;;21.80;85.70;;;;;;4972868;28;20023;-74
2022/09/06 01:22:28;;;;;;;8.45;6.22;;;21.70;87.10;;;;;;4972880;28;20038;-74
2022/09/06 01:25:11;;;;;;;10.15;6.13;;;21.70;85.60;;;;;;4972668;28;20081;-74
2022/09/06 01:27:55;;;;;;;12.73;5.85;;;21.70;86.40;;;;;;4972458;28;20073;-74
2022/09/06 01:30:21;;;;;;;11.32;6.00;;;21.70;85.40;;;;;;4972131;28;20122;-75
2022/09/06 01:32:52;;;;;;;9.35;6.25;;;21.70;85.60;;;;;;4970644;28;20038;-74
2022/09/06 01:35:56;;;;;;;6.85;5.82;;;21.70;85.70;;;;;;4976083;28;20034;-73
2022/09/06 01:38:22;;;;;;;7.55;5.55;;;21.60;85.60;;;;;;4991177;28;20042;-73
2022/09/06 01:40:47;;;;;;;9.68;6.35;;;21.60;85.50;;;;;;4991664;28;20077;-74
2022/09/06 01:43:21;;;;;;;10.05;5.63;;;21.60;85.60;;;;;;4991257;28;20039;-73
2022/09/06 01:46:08;;;;;;;9.73;6.25;;;21.60;85.50;;;;;;4991293;28;20031;-72
2022/09/06 01:48:48;;;;;;;13.43;5.88;;;21.60;85.40;;;;;;4991334;28;20038;-74
2022/09/06 01:52:00;;;;;;;7.63;5.88;;;21.50;86.10;;;;;;4991272;28;20480;-73
2022/09/06 01:54:25;;;;;;;7.07;5.38;;;21.50;86.20;;;;;;4991416;28;20077;-73
2022/09/06 01:56:57;;;;;;;11.32;6.07;;;21.60;85.50;;;;;;4989902;28;20568;-73
2022/09/06 01:59:31;;;;;;;9.77;5.90;;;21.50;85.90;;;;;;4991123;28;20026;-74
2022/09/06 02:02:19;;;;;;;9.27;6.25;;;21.40;86.00;;;;;;4991670;28;20030;-74
2022/09/06 02:05:09;;;;;;;10.85;5.90;;;21.40;85.70;;;;;;4991364;28;20045;-74
2022/09/06 02:07:37;;;;;;;8.80;6.20;;;21.40;85.50;;;;;;4991216;28;20038;-72
2022/09/06 02:10:33;;;;;;;6.63;5.15;;;21.40;85.20;;;;;;4991444;28;20128;-72
2022/09/06 02:13:00;;;;;;;7.35;5.57;;;21.40;85.40;;;;;;4989993;28;20626;-73
2022/09/06 02:15:31;;;;;;;8.52;6.00;;;21.40;85.30;;;;;;4991214;28;20050;-72
2022/09/06 02:18:10;;;;;;;9.57;5.68;;;21.40;84.90;;;;;;4990000;28;20031;-74
2022/09/06 02:20:43;;;;;;;14.48;6.05;;;21.40;85.00;;;;;;4990975;28;20392;-73
2022/09/06 02:23:10;;;;;;;9.55;5.60;;;21.30;85.40;;;;;;4991357;28;20026;-75
2022/09/06 02:25:44;;;;;;;10.88;5.03;;;21.30;84.60;;;;;;4991042;28;20053;-73
2022/09/06 02:28:10;;;;;;;9.45;5.40;;;21.30;85.10;;;;;;4991084;28;20039;-74
2022/09/06 02:30:41;;;;;;;9.82;4.78;;;21.30;85.20;;;;;;4990969;28;20031;-73
2022/09/06 02:33:16;;;;;;;9.98;6.03;;;21.30;85.10;;;;;;4991166;28;20033;-74
2022/09/06 02:35:45;;;;;;;5.65;4.72;;;21.30;85.10;;;;;;4990864;28;20357;-73
2022/09/06 02:38:10;;;;;;;;;;;21.30;84.80;;;;;;4991827;28;20026;-75
2022/09/06 02:40:37;;;;;;;9.38;5.80;;;21.20;84.70;;;;;;4989712;28;20241;-72
2022/09/06 02:43:02;;;;;;;10.15;5.43;;;21.10;85.10;;;;;;4989571;28;20038;-73
2022/09/06 02:45:28;;;;;;;11.25;6.10;;;21.20;85.00;;;;;;4993360;28;20038;-73
2022/09/06 02:47:54;;;;;;;8.25;5.65;;;21.20;84.90;;;;;;4994800;28;20057;-75
2022/09/06 02:50:19;;;;;;;7.00;5.40;;;21.10;84.80;;;;;;4995021;28;20033;-73
2022/09/06 02:52:46;;;;;;;10.65;5.25;;;21.10;84.70;;;;;;4994598;28;20038;-73
2022/09/06 02:55:11;;;;;;;10.70;6.10;;;21.10;84.80;;;;;;4994508;28;20436;-72
2022/09/06 02:57:37;;;;;;;13.95;6.50;;;21.10;84.90;;;;;;4994626;28;20034;-75
2022/09/06 03:00:03;;;;;;;11.23;5.80;;;21.10;86.60;;;;;;4994564;28;20484;-74
2022/09/06 03:02:29;;;;;;;9.50;5.45;;;21.10;87.90;;;;;;4994627;28;20057;-73
2022/09/06 03:04:55;;;;;;;10.93;5.72;;;21.10;87.90;;;;;;4994916;28;20060;-73
2022/09/06 03:07:20;;;;;;;6.85;5.30;;;21.10;87.50;;;;;;4993102;28;20361;-72
2022/09/06 03:09:46;;;;;;;8.85;5.22;;;21.10;88.80;;;;;;4993068;28;20037;-74
2022/09/06 03:12:11;;;;;;;5.93;4.82;;;21.00;87.20;;;;;;4993966;28;20051;-73
2022/09/06 03:14:40;;;;;;;5.95;5.13;;;21.00;87.70;;;;;;4994195;28;20030;-75
2022/09/06 03:17:05;;;;;;;;;;;21.00;87.40;;;;;;4994901;28;20383;-75
2022/09/06 03:19:31;;;;;;;7.70;5.72;;;21.00;86.80;;;;;;4994121;28;19918;-73
2022/09/06 03:21:56;;;;;;;6.70;5.28;;;20.90;87.40;;;;;;4994153;28;20053;-74
2022/09/06 03:24:22;;;;;;;7.38;5.00;;;20.80;87.50;;;;;;4994248;28;20100;-73
2022/09/06 03:26:48;;;;;;;7.60;6.35;;;20.80;88.40;;;;;;4993658;28;20041;-72
2022/09/06 03:29:13;;;;;;;8.80;4.90;;;20.70;88.20;;;;;;4994396;28;20019;-72
2022/09/06 03:31:39;;;;;;;7.82;5.10;;;20.70;87.40;;;;;;4993778;28;20039;-73
2022/09/06 03:34:04;;;;;;;12.35;7.63;;;20.70;88.10;;;;;;4992745;28;20034;-74
2022/09/06 03:36:30;;;;;;;6.65;5.00;;;20.70;86.40;;;;;;4993691;28;20081;-74
2022/09/06 03:38:58;;;;;;;7.47;5.10;;;20.60;86.50;;;;;;4993562;28;20083;-72
2022/09/06 03:41:23;;;;;;;6.18;4.57;;;20.60;86.30;;;;;;4992508;28;20022;-72
2022/09/06 03:43:49;;;;;;;8.70;5.22;;;20.60;85.90;;;;;;4994145;28;20037;-74
2022/09/06 03:46:15;;;;;;;6.90;4.70;;;20.60;85.30;;;;;;4993545;28;20037;-75
2022/09/06 03:48:40;;;;;;;6.88;4.43;;;20.60;85.50;;;;;;4993379;28;20062;-74
2022/09/06 03:51:06;;;;;;;11.38;4.85;;;20.50;85.60;;;;;;4992234;28;20034;-75
2022/09/06 03:53:32;;;;;;;9.75;4.85;;;20.40;85.70;;;;;;4993264;28;20056;-74
2022/09/06 03:55:58;;;;;;;14.27;5.05;;;20.50;85.40;;;;;;4993527;28;20437;-75
2022/09/06 03:58:28;;;;;;;7.28;4.53;;;20.50;85.40;;;;;;4993113;28;20039;-75
2022/09/06 04:01:02;;;;;;;11.23;5.65;;;20.40;85.70;;;;;;4993182;28;20061;-74
2022/09/06 04:03:30;;;;;;;11.05;5.43;;;20.40;85.50;;;;;;4993315;28;20333;-75
2022/09/06 04:05:55;;;;;;;10.50;5.05;;;20.40;85.40;;;;;;4992144;28;20034;-74
2022/09/06 04:08:21;;;;;;;10.35;5.00;;;20.30;85.20;;;;;;4993520;28;20034;-74
2022/09/06 04:10:51;;;;;;;7.88;5.10;;;20.30;85.30;;;;;;4992188;28;20018;-75
2022/09/06 04:13:17;;;;;;;7.32;4.60;;;20.30;85.30;;;;;;4993254;28;20431;-74
2022/09/06 04:15:49;;;;;;;13.23;5.25;;;20.30;84.70;;;;;;4991978;28;20031;-74
2022/09/06 04:18:14;;;;;;;9.13;4.65;;;20.30;85.00;;;;;;4992793;28;20439;-73
2022/09/06 04:20:41;;;;;;;10.80;4.90;;;20.20;85.20;;;;;;4992873;28;20169;-74
2022/09/06 04:23:06;;;;;;;6.05;4.90;;;20.20;85.90;;;;;;4992087;28;20041;-73
2022/09/06 04:25:32;;;;;;;7.03;4.60;;;20.20;85.20;;;;;;4991536;28;20357;-74
2022/09/06 04:27:58;;;;;;;9.35;5.30;;;20.20;85.20;;;;;;4991531;28;20456;-74
2022/09/06 04:30:24;;;;;;;6.85;4.50;;;20.20;85.10;;;;;;4992556;28;20030;-74
2022/09/06 04:32:49;;;;;;;6.65;4.75;;;20.10;84.90;;;;;;4992657;28;20114;-74
2022/09/06 04:35:15;;;;;;;8.80;4.65;;;20.10;84.80;;;;;;4993053;28;20148;-73
2022/09/06 04:37:41;;;;;;;8.73;4.80;;;20.10;84.90;;;;;;4992512;28;20342;-73
2022/09/06 04:40:07;;;;;;;9.32;4.47;;;20.10;84.90;;;;;;4992431;28;20046;-74
2022/09/06 04:42:33;;;;;;;7.50;4.55;;;20.10;84.70;;;;;;4992485;28;20350;-75
2022/09/06 04:44:58;;;;;;;5.38;4.20;;;20.00;84.70;;;;;;4992441;28;20119;-74
2022/09/06 04:47:24;;;;;;;12.02;4.30;;;20.00;84.50;;;;;;4992325;28;20030;-74
2022/09/06 04:49:50;;;;;;;6.85;4.15;;;20.10;84.30;;;;;;4993135;28;20022;-74
2022/09/06 04:52:16;;;;;;;9.48;4.65;;;20.10;84.50;;;;;;4992504;28;20031;-74
2022/09/06 04:54:42;;;;;;;10.25;5.03;;;20.00;84.40;;;;;;4992263;28;20592;-74
2022/09/06 04:57:07;;;;;;;9.43;4.32;;;20.00;84.60;;;;;;4992080;28;20035;-75
2022/09/06 04:59:33;;;;;;;6.90;4.22;;;20.00;84.80;;;;;;4992416;28;20088;-74
2022/09/06 05:01:59;;;;;;;12.30;4.70;;;19.90;84.60;;;;;;4992606;28;20580;-73
2022/09/06 05:04:25;;;;;;;10.35;5.18;;;20.00;84.70;;;;;;4992176;28;20117;-75
2022/09/06 05:07:10;;;;;;;6.63;4.68;;;20.00;84.50;;;;;;4991407;28;20042;-74
2022/09/06 05:09:37;;;;;;;7.97;4.22;;;19.90;84.40;;;;;;4991686;28;20045;-74
2022/09/06 05:12:03;;;;;;;10.75;4.72;;;19.90;84.30;;;;;;4990889;28;20052;-74
2022/09/06 05:14:29;;;;;;;11.75;4.38;;;19.90;84.50;;;;;;4992419;28;20034;-74
2022/09/06 05:16:55;;;;;;;10.95;4.88;;;19.90;84.30;;;;;;4992880;28;20018;-75
2022/09/06 05:19:21;;;;;;;15.23;5.00;;;19.90;84.00;;;;;;4992173;28;20461;-73
2022/09/06 05:21:46;;;;;;;11.43;5.55;;;19.90;84.40;;;;;;4993193;28;20026;-74
2022/09/06 05:24:12;;;;;;;6.68;4.45;;;19.90;84.20;;;;;;4991601;28;20054;-74
2022/09/06 05:26:38;;;;;;;19.95;12.25;;;20.00;84.20;;;;;;4991439;28;20026;-72
2022/09/06 05:29:04;;;;;;;21.95;6.20;;;19.90;84.10;;;;;;4991849;28;20084;-73
2022/09/06 05:31:33;;;;;;;14.85;4.57;;;19.90;84.10;;;;;;4991548;28;20073;-73
2022/09/06 05:33:59;;;;;;;7.28;4.75;;;19.90;83.70;;;;;;4991616;28;20459;-73
2022/09/06 05:36:26;;;;;;;7.38;5.10;;;19.90;84.00;;;;;;4991405;28;20038;-73
2022/09/06 05:38:53;;;;;;;7.95;4.47;;;19.90;84.00;;;;;;4991301;28;20532;-74
2022/09/06 05:41:19;;;;;;;13.07;5.03;;;19.80;84.00;;;;;;4990470;28;20391;-74
2022/09/06 05:43:45;;;;;;;10.10;4.45;;;19.80;84.10;;;;;;4991469;28;20061;-74
2022/09/06 05:46:12;;;;;;;8.15;4.82;;;19.80;84.20;;;;;;4991334;28;20042;-73
2022/09/06 05:48:37;;;;;;;8.02;4.85;;;19.80;84.20;;;;;;4991516;28;20035;-73
2022/09/06 05:51:11;;;;;;;8.73;4.30;;;19.80;84.30;;;;;;4991260;28;20083;-74
2022/09/06 05:53:39;;;;;;;11.48;5.00;;;19.80;84.00;;;;;;4991380;28;20052;-77
2022/09/06 05:56:06;;;;;;;9.82;4.97;;;19.90;83.90;;;;;;4991610;28;20034;-76
2022/09/06 05:58:32;;;;;;;5.80;4.20;;;19.90;84.20;;;;;;4991062;28;20042;-77
2022/09/06 06:01:25;;;;;;;12.73;4.63;;;19.90;84.20;;;;;;4991152;28;20611;-76
2022/09/06 06:03:54;;;;;;;8.45;4.95;;;19.80;83.80;;;;;;4991352;28;20050;-77
2022/09/06 06:06:20;;;;;;;7.63;4.30;;;19.80;83.70;;;;;;4991442;28;20484;-77
2022/09/06 06:08:46;;;;;;;10.27;5.20;;;19.80;83.80;;;;;;4991038;28;20031;-78
2022/09/06 06:11:12;;;;;;;7.45;4.55;;;19.70;84.00;;;;;;4990373;28;20208;-77
2022/09/06 06:13:38;;;;;;;7.95;4.45;;;19.70;84.20;;;;;;4989938;28;20034;-77
2022/09/06 06:16:10;;;;;;;10.35;5.03;;;19.70;84.40;;;;;;4991098;28;20527;-76
2022/09/06 06:18:36;;;;;;;13.77;5.63;;;19.80;84.00;;;;;;4981937;28;20043;-76
2022/09/06 06:21:12;;;;;;;8.80;4.80;;;19.80;87.10;;;;;;4957633;28;20035;-77
2022/09/06 06:23:39;;;;;;;9.68;5.32;;;19.90;87.70;;;;;;4957610;28;20339;-77
2022/09/06 06:26:05;;;;;;;12.18;5.43;;;19.80;90.20;;;;;;4958275;28;20038;-79
2022/09/06 06:28:31;;;;;;;23.98;7.97;;;19.90;90.90;;;;;;4957189;28;20122;-78
2022/09/06 06:30:57;;;;;;;23.48;6.88;;;19.90;91.70;;;;;;4956648;28;20119;-76
2022/09/06 06:33:22;;;;;;;19.85;6.65;;;19.90;92.40;;;;;;4956162;28;20082;-76
2022/09/06 06:36:06;;;;;;;12.60;5.57;;;19.80;92.70;;;;;;4971516;28;20149;-77
2022/09/06 06:38:38;;;;;;;23.85;7.35;;;19.80;92.90;;;;;;4971048;28;20404;-77
2022/09/06 06:41:05;;;;;;;26.63;9.35;;;19.70;94.60;;;;;;4956409;28;20421;-78
2022/09/06 06:43:35;;;;;;;28.67;8.13;;;19.60;95.50;;;;;;4971343;28;20532;-78
2022/09/06 06:46:11;;;;;;;19.42;7.57;;;19.60;95.40;;;;;;4956837;28;20119;-78
2022/09/06 06:48:40;;;;;;;19.90;7.68;;;19.50;95.50;;;;;;4971155;28;20080;-79
2022/09/06 06:51:15;;;;;;;34.95;15.73;;;19.40;95.60;;;;;;4956305;28;20031;-78
2022/09/06 06:53:42;;;;;;;33.00;16.73;;;19.30;95.60;;;;;;4956317;28;20036;-78
2022/09/06 06:56:19;;;;;;;14.05;7.57;;;19.30;95.60;;;;;;4956309;29;20027;-78
2022/09/06 06:58:47;;;;;;;11.20;6.25;;;19.20;95.60;;;;;;4955854;28;20485;-78
2022/09/06 07:01:12;;;;;;;13.93;6.75;;;19.10;95.80;;;;;;4955970;28;20410;-77
2022/09/06 07:03:38;;;;;;;18.58;6.97;;;19.00;96.20;;;;;;4955770;28;20054;-77
2022/09/06 07:06:05;;;;;;;15.88;6.95;;;18.90;96.80;;;;;;4955975;28;20031;-74
2022/09/06 07:08:31;;;;;;;12.93;7.63;;;18.80;97.00;;;;;;4970667;28;20067;-76
2022/09/06 07:10:57;;;;;;;12.57;6.93;;;18.80;97.30;;;;;;4971020;28;20059;-75
2022/09/06 07:13:22;;;;;;;8.93;6.55;;;18.90;97.20;;;;;;4956040;28;20128;-75
2022/09/06 07:15:48;;;;;;;13.68;6.75;;;18.80;97.30;;;;;;4955733;28;20035;-73
2022/09/06 07:18:17;;;;;;;14.52;6.90;;;18.80;97.70;;;;;;4955263;28;20142;-74
2022/09/06 07:20:44;;;;;;;18.52;7.15;;;18.60;97.70;;;;;;4954842;28;20098;-74
2022/09/06 07:23:09;;;;;;;9.27;5.97;;;18.60;97.90;;;;;;4955374;28;20395;-75
2022/09/06 07:25:35;;;;;;;9.10;6.68;;;18.50;97.10;;;;;;4955017;28;20559;-75
2022/09/06 07:28:05;;;;;;;12.57;6.28;;;18.50;97.10;;;;;;4955018;28;20028;-75
2022/09/06 07:30:36;;;;;;;15.90;10.15;;;18.50;96.90;;;;;;4969200;28;20417;-74
2022/09/06 07:33:04;;;;;;;15.95;8.48;;;18.40;97.80;;;;;;4954971;28;20051;-74
2022/09/06 07:35:30;;;;;;;9.63;6.03;;;18.50;98.30;;;;;;4969937;28;20443;-74
2022/09/06 07:37:58;;;;;;;18.30;6.63;;;18.50;98.10;;;;;;4970086;28;20031;-73
2022/09/06 07:40:25;;;;;;;9.13;5.97;;;18.50;98.10;;;;;;4954741;28;20050;-73
2022/09/06 07:42:52;;;;;;;11.02;5.75;;;18.60;98.00;;;;;;4969704;28;20477;-75
2022/09/06 07:45:18;;;;;;;9.73;6.43;;;18.60;97.40;;;;;;4954725;28;20113;-74
2022/09/06 07:47:44;;;;;;;9.60;6.07;;;18.70;97.80;;;;;;4954537;28;20031;-74
2022/09/06 07:50:10;;;;;;;13.57;6.03;;;18.70;97.20;;;;;;4970125;28;20042;-76
2022/09/06 07:52:36;;;;;;;17.90;7.03;;;18.60;97.60;;;;;;4954818;28;20034;-73
2022/09/06 07:55:02;;;;;;;19.33;10.68;;;18.50;97.90;;;;;;4970004;28;20031;-74
2022/09/06 07:57:27;;;;;;;14.65;7.68;;;18.60;98.50;;;;;;4954445;28;20035;-74
2022/09/06 07:59:53;;;;;;;14.88;6.95;;;18.60;98.10;;;;;;4954524;28;20374;-73
2022/09/06 08:02:18;;;;;;;9.10;5.53;;;18.60;98.20;;;;;;4969787;28;20034;-74
2022/09/06 08:04:44;;;;;;;11.50;6.65;;;18.50;98.10;;;;;;4954519;28;20079;-74
2022/09/06 08:07:11;;;;;;;9.85;6.70;;;18.60;97.90;;;;;;4954976;28;20047;-73
2022/09/06 08:09:36;;;;;;;11.75;7.07;;;18.60;98.60;;;;;;4954233;28;20047;-74
2022/09/06 08:12:06;;;;;;;16.50;10.18;;;18.60;98.60;;;;;;4954158;28;20123;-74
2022/09/06 08:14:35;;;;;;;11.75;7.57;;;18.60;98.60;;;;;;4954114;28;20031;-75
2022/09/06 08:17:01;;;;;;;11.00;5.75;;;18.70;98.00;;;;;;4954866;28;20027;-75
2022/09/06 08:19:27;;;;;;;9.77;6.30;;;18.70;98.20;;;;;;4954089;28;20027;-75
2022/09/06 08:21:54;;;;;;;11.05;5.57;;;18.70;98.30;;;;;;4954195;28;20076;-74
2022/09/06 08:24:20;;;;;;;11.35;6.22;;;18.70;98.20;;;;;;4953014;28;20043;-73
2022/09/06 08:26:45;;;;;;;9.10;5.97;;;18.70;98.10;;;;;;4969107;28;20023;-74
2022/09/06 08:29:12;;;;;;;8.52;5.50;;;18.70;98.30;;;;;;4969503;28;20251;-74
2022/09/06 08:31:40;;;;;;;13.95;5.72;;;18.70;97.80;;;;;;4953925;28;20032;-74
2022/09/06 08:34:06;;;;;;;;;;;18.70;97.90;;;;;;4954670;28;20047;-75
2022/09/06 08:36:32;;;;;;;14.65;6.57;;;18.80;98.10;;;;;;4954169;28;19965;-75
2022/09/06 08:39:00;;;;;;;11.30;5.80;;;18.80;98.10;;;;;;4968934;28;20046;-74
2022/09/06 08:41:48;;;;;;;22.40;7.93;;;18.90;98.20;;;;;;4953519;28;20039;-74
2022/09/06 08:44:19;;;;;;;10.07;5.90;;;19.00;97.90;;;;;;4954207;28;20027;-73
2022/09/06 08:46:58;;;;;;;12.32;5.80;;;19.10;97.60;;;;;;4953497;28;20057;-73
2022/09/06 08:49:34;;;;;;;10.80;5.57;;;19.30;98.00;;;;;;4953763;28;20076;-74
2022/09/06 08:52:24;;;;;;;9.85;4.85;;;19.40;97.50;;;;;;4953360;28;20040;-73
2022/09/06 08:55:15;;;;;;;9.10;5.72;;;19.60;97.10;;;;;;4953281;28;20043;-73
2022/09/06 08:57:49;;;;;;;10.90;5.03;;;19.70;96.70;;;;;;4953241;28;20157;-73
2022/09/06 09:00:18;;;;;;;9.82;5.13;;;19.90;96.60;;;;;;4953467;28;20031;-74
2022/09/06 09:03:13;;;;;;;9.02;5.03;;;20.20;96.50;;;;;;5115168;27;20817;-74
2022/09/06 09:05:41;;;;;;;24.52;6.30;;;20.30;96.40;;;;;;5067006;28;20021;-75
2022/09/06 09:08:06;;;;;;;8.73;5.00;;;20.30;96.30;;;;;;5068200;28;20500;-73
2022/09/06 09:10:43;;;;;;;9.18;4.95;;;20.30;96.90;;;;;;5067741;28;20053;-73
2022/09/06 09:13:19;;;;;;;8.87;4.53;;;20.30;96.10;;;;;;5067707;28;20685;-75
2022/09/06 09:15:45;;;;;;;52.20;9.48;;;20.50;96.40;;;;;;5067554;28;20037;-75
2022/09/06 09:18:10;;;;;;;8.90;5.40;;;20.70;95.90;;;;;;5067552;28;20086;-74
2022/09/06 09:20:37;;;;;;;26.77;6.43;;;20.90;95.40;;;;;;5067275;28;20047;-74
2022/09/06 09:23:03;;;;;;;27.48;6.60;;;21.10;95.00;;;;;;5067967;28;20485;-74
2022/09/06 09:25:31;;;;;;;9.90;4.65;;;21.30;94.70;;;;;;5067203;28;20032;-74
2022/09/06 09:27:57;;;;;;;8.52;4.47;;;21.40;94.10;;;;;;5067439;28;20077;-74
2022/09/06 09:30:25;;;;;;;10.48;4.18;;;21.60;94.40;;;;;;5066143;28;20459;-74
2022/09/06 09:32:51;;;;;;;13.30;4.72;;;22.00;94.30;;;;;;5068048;28;20039;-73
2022/09/06 09:35:30;;;;;;;5.07;3.35;;;22.50;93.10;;;;;;5068168;28;20249;-74
2022/09/06 09:38:12;;;;;;;8.50;3.90;;;23.10;93.10;;;;;;5067347;28;20083;-74
2022/09/06 09:40:57;;;;;;;7.03;3.78;;;24.30;91.70;;;;;;5065603;28;20029;-75
2022/09/06 09:43:34;;;;;;;8.15;4.00;;;25.50;89.30;;;;;;5083003;28;20058;-73
2022/09/06 09:46:22;;;;;;;9.82;3.40;;;26.20;87.50;;;;;;5081267;28;20366;-76
2022/09/06 09:49:03;;;;;;;;;;;26.70;84.80;;;;;;5075747;28;20040;-76
2022/09/06 09:51:30;;;;;;;8.00;3.72;;;26.90;80.20;;;;;;5067130;28;19928;-76
2022/09/06 09:53:58;;;;;;;47.20;6.63;;;27.10;79.50;;;;;;5066079;28;20051;-75
2022/09/06 09:56:29;;;;;;;;;;;27.30;78.00;;;;;;5068274;28;20560;-76
2022/09/06 09:58:56;;;;;;;37.35;6.65;;;27.70;77.10;;;;;;5067827;28;19904;-76
2022/09/06 10:01:27;;;;;;;4.90;3.42;;;27.90;75.80;;;;;;5075244;28;20415;-77
2022/09/06 10:04:01;;;;;;;14.02;3.38;;;27.90;73.80;;;;;;5087430;28;20087;-77
2022/09/06 10:06:27;;;;;;;6.80;3.65;;;27.90;72.60;;;;;;5087297;28;20503;-76
2022/09/06 10:08:53;;;;;;;3.83;3.15;;;27.30;73.20;;;;;;5086968;28;20074;-75
2022/09/06 10:11:47;;;;;;;8.80;4.10;;;27.20;72.70;;;;;;5087310;28;20394;-76
2022/09/06 10:14:27;;;;;;;9.10;3.53;;;26.50;73.00;;;;;;5073392;28;20108;-76
2022/09/06 10:16:54;;;;;;;14.60;3.42;;;25.60;75.30;;;;;;5073180;28;20548;-76
2022/09/06 10:19:40;;;;;;;12.20;4.25;;;25.30;76.10;;;;;;5073228;28;20056;-75
2022/09/06 10:22:42;;;;;;;8.27;3.72;;;24.80;77.90;;;;;;5072874;28;20473;-75
2022/09/06 10:25:45;;;;;;;12.82;4.15;;;24.40;77.70;;;;;;5072837;28;20029;-74
2022/09/06 10:28:27;;;;;;;10.52;3.72;;;24.10;79.20;;;;;;5071791;28;20024;-75
2022/09/06 10:30:58;;;;;;;8.88;3.90;;;23.90;78.70;;;;;;5072716;28;20347;-75
2022/09/06 10:33:30;;;;;;;19.70;5.45;;;23.80;79.00;;;;;;5072665;28;20059;-75
2022/09/06 10:35:57;;;;;;;21.23;3.92;;;23.60;78.30;;;;;;5072376;28;20472;-74
2022/09/06 10:38:58;;;;;;;8.65;3.40;;;23.40;78.90;;;;;;5072443;28;20502;-74
2022/09/06 10:42:00;;;;;;;30.15;5.65;;;23.30;79.00;;;;;;5071412;28;20031;-74
2022/09/06 10:44:44;;;;;;;11.13;3.08;;;23.20;79.80;;;;;;5072746;28;20330;-73
2022/09/06 10:47:13;;;;;;;55.25;7.13;;;23.10;80.70;;;;;;5072850;28;20017;-76
2022/09/06 10:49:44;;;;;;;7.38;3.45;;;23.00;81.70;;;;;;5072287;28;20044;-75
2022/09/06 10:52:26;;;;;;;14.98;3.83;;;22.90;81.10;;;;;;5072440;28;20087;-75
2022/09/06 10:55:00;;;;;;;32.22;4.82;;;22.90;81.30;;;;;;5072352;28;20521;-75
2022/09/06 10:57:35;;;;;;;6.38;3.72;;;22.80;81.60;;;;;;5072215;28;20059;-74
2022/09/06 11:00:13;;;;;;;7.45;3.28;;;22.80;81.30;;;;;;5071096;28;20032;-72
2022/09/06 11:02:58;;;;;;;75.75;8.43;;;22.80;81.60;;;;;;5070543;28;20370;-73
2022/09/06 11:05:29;;;;;;;13.80;3.85;;;22.80;81.30;;;;;;5072289;28;20019;-74
2022/09/06 11:08:16;;;;;;;7.80;3.47;;;23.00;81.40;;;;;;5073351;28;20035;-74
2022/09/06 11:10:46;;;;;;;11.75;3.88;;;23.90;79.80;;;;;;5071656;28;20398;-73
2022/09/06 11:13:18;;;;;;;8.70;4.32;;;24.70;76.90;;;;;;5071568;28;20159;-74
2022/09/06 11:16:05;;;;;;;8.00;3.83;;;25.00;75.30;;;;;;5072025;28;20028;-74
2022/09/06 11:18:43;;;;;;;11.98;3.50;;;25.70;74.10;;;;;;5070787;28;20035;-75
2022/09/06 11:21:46;;;;;;;17.77;3.45;;;25.80;72.00;;;;;;5071352;28;20294;-75
2022/09/06 11:24:24;;;;;;;13.57;3.45;;;25.70;71.60;;;;;;5070646;28;20115;-74
2022/09/06 11:27:15;;;;;;;5.30;2.80;;;25.60;69.90;;;;;;5072774;28;20052;-74
2022/09/06 11:29:45;;;;;;;5.25;3.28;;;25.90;69.80;;;;;;5072076;28;20094;-75
2022/09/06 11:32:29;;;;;;;6.75;3.20;;;25.50;70.10;;;;;;5071878;28;20103;-74
2022/09/06 11:34:57;;;;;;;9.60;3.53;;;25.50;70.00;;;;;;5071550;28;20520;-73
2022/09/06 11:37:24;;;;;;;;;;;25.70;70.60;;;;;;5071792;28;20353;-74
2022/09/06 11:40:08;;;;;;;7.50;3.05;;;25.50;70.20;;;;;;5071062;28;19944;-74
2022/09/06 11:42:44;;;;;;;15.55;3.38;;;25.40;70.40;;;;;;5071340;28;20041;-76
2022/09/06 11:45:09;;;;;;;10.23;3.47;;;25.30;70.00;;;;;;5071207;28;20058;-75
2022/09/06 11:47:49;;;;;;;8.15;3.08;;;25.20;70.20;;;;;;5071142;28;20032;-74
2022/09/06 11:50:20;;;;;;;7.85;3.30;;;25.10;70.10;;;;;;5071881;28;20055;-75
2022/09/06 11:53:14;;;;;;;12.60;3.17;;;25.00;69.90;;;;;;5071150;28;20061;-75
2022/09/06 11:55:49;;;;;;;12.07;4.03;;;25.10;70.40;;;;;;5049819;28;20030;-73
2022/09/06 11:58:24;;;;;;;12.65;3.20;;;25.10;70.70;;;;;;5050609;28;20094;-75
2022/09/06 12:01:12;;;;;;;7.80;3.20;;;25.20;70.80;;;;;;5050729;28;20063;-74
2022/09/06 12:03:49;;;;;;;9.25;3.67;;;25.40;69.90;;;;;;5051527;28;20420;-75
2022/09/06 12:06:18;;;;;;;;;;;25.50;70.40;;;;;;5052051;28;20029;-74
2022/09/06 12:08:45;;;;;;;9.35;3.15;;;25.50;70.00;;;;;;5051397;28;19908;-74
2022/09/06 12:11:42;;;;;;;10.70;3.47;;;25.40;70.50;;;;;;5051729;28;20459;-74
2022/09/06 12:14:38;;;;;;;6.82;3.10;;;25.60;70.50;;;;;;5032053;28;20048;-75
2022/09/06 12:17:05;;;;;;;7.13;4.13;;;25.60;69.80;;;;;;5031407;28;20053;-73
2022/09/06 12:19:42;;;;;;;9.13;3.40;;;25.60;69.50;;;;;;5030283;28;20048;-74
2022/09/06 12:22:28;;;;;;;11.90;3.35;;;25.60;69.20;;;;;;5046121;28;20037;-75
2022/09/06 12:25:23;;;;;;;7.35;2.70;;;25.60;68.90;;;;;;5050165;28;20382;-75
2022/09/06 12:27:55;;;;;;;13.18;3.38;;;25.60;69.30;;;;;;5051157;28;20040;-76
2022/09/06 12:30:41;;;;;;;6.55;3.78;;;25.70;68.90;;;;;;5051320;28;20029;-75
2022/09/06 12:33:30;;;;;;;5.22;3.05;;;25.70;68.40;;;;;;5050939;28;20029;-75
2022/09/06 12:36:18;;;;;;;8.73;3.25;;;25.70;68.40;;;;;;5049547;28;20504;-74
2022/09/06 12:39:13;;;;;;;9.45;3.53;;;25.80;69.10;;;;;;5050577;28;20171;-74
2022/09/06 12:41:43;;;;;;;5.20;3.17;;;25.80;68.40;;;;;;5041649;28;20094;-76
2022/09/06 12:44:10;;;;;;;17.45;4.50;;;25.70;68.20;;;;;;5051151;28;20025;-76
2022/09/06 12:46:38;;;;;;;6.07;3.13;;;25.60;68.50;;;;;;5050953;28;20036;-75
2022/09/06 12:49:09;;;;;;;15.55;3.13;;;25.60;69.20;;;;;;5050860;28;20033;-74
2022/09/06 12:51:37;;;;;;;6.22;3.28;;;25.60;70.00;;;;;;5049831;28;20094;-76
2022/09/06 12:54:21;;;;;;;11.93;3.95;;;25.70;68.80;;;;;;5049820;28;20123;-76
2022/09/06 12:56:48;;;;;;;7.00;3.63;;;25.80;69.60;;;;;;5049668;28;20029;-77
2022/09/06 12:59:23;;;;;;;7.40;3.65;;;25.80;69.10;;;;;;5049155;28;20024;-76
2022/09/06 13:02:06;;;;;;;8.98;3.95;;;25.90;69.30;;;;;;5028472;28;20131;-74
2022/09/06 13:04:41;;;;;;;8.30;3.30;;;25.90;68.40;;;;;;5029761;28;20030;-75